Time;durP1;ratioP1;P1;durP2;ratioP2;P2;SDS_P1;SDS_P2;PMS_P1;PMS_P2;Temp;Humidity;BMP_temperature;BMP_pressure;BME280_temperature;BME280_humidity;BME280_pressure;Samples;Min_cycle;Max_cycle;Signal;HPM_P1;HPM_P2
2023/01/16 00:01:20;;;;;;;24.95;9.20;;;;;;;-2.62;100.00;98783.44;5057781;28;20021;-75
2023/01/16 00:03:46;;;;;;;27.23;10.13;;;;;;;-2.72;100.00;98768.53;5057793;28;20036;-76
2023/01/16 00:06:12;;;;;;;23.55;8.63;;;;;;;-2.74;100.00;98772.25;5041115;28;20538;-75
2023/01/16 00:08:39;;;;;;;13.95;6.00;;;;;;;-2.79;100.00;98777.94;5040917;28;20036;-75
2023/01/16 00:11:05;;;;;;;15.48;7.43;;;;;;;-2.85;100.00;98775.03;5057319;28;20043;-76
2023/01/16 00:13:31;;;;;;;32.00;12.02;;;;;;;-2.99;100.00;98776.25;5041093;28;20040;-75
2023/01/16 00:15:56;;;;;;;30.55;11.00;;;;;;;-3.15;100.00;98768.91;5041121;28;20033;-75
2023/01/16 00:18:22;;;;;;;26.95;9.57;;;;;;;-3.15;100.00;98777.66;5073644;28;20028;-76
2023/01/16 00:20:48;;;;;;;28.30;10.25;;;;;;;-3.22;100.00;98781.81;5040696;28;20111;-75
2023/01/16 00:23:14;;;;;;;22.50;10.60;;;;;;;-3.33;100.00;98777.50;5057068;28;20497;-75
2023/01/16 00:25:41;;;;;;;22.73;10.57;;;;;;;-3.35;100.00;98781.22;5040791;28;20028;-75
2023/01/16 00:28:07;;;;;;;21.83;8.73;;;;;;;-3.30;100.00;98780.81;5040765;28;20090;-76
2023/01/16 00:30:33;;;;;;;22.13;9.98;;;;;;;-3.21;100.00;98782.63;5057283;28;20036;-76
2023/01/16 00:32:59;;;;;;;19.60;8.98;;;;;;;-3.11;100.00;98789.56;5040775;28;20378;-76
2023/01/16 00:35:26;;;;;;;21.10;9.98;;;;;;;-3.18;100.00;98779.72;5056834;28;20028;-76
2023/01/16 00:37:52;;;;;;;19.75;11.40;;;;;;;-3.18;100.00;98784.97;5057381;28;20529;-76
2023/01/16 00:40:18;;;;;;;24.88;11.45;;;;;;;-3.21;100.00;98778.19;5056990;28;20037;-76
2023/01/16 00:42:44;;;;;;;23.13;12.15;;;;;;;-3.27;100.00;98776.13;5056876;28;20074;-75
2023/01/16 00:45:13;;;;;;;22.45;11.50;;;;;;;-3.28;100.00;98789.38;5040778;28;20089;-75
2023/01/16 00:47:39;;;;;;;23.55;11.10;;;;;;;-3.40;100.00;98768.50;5056690;28;20070;-75
2023/01/16 00:50:05;;;;;;;28.10;13.70;;;;;;;-3.40;100.00;98779.00;5056747;28;20111;-75
2023/01/16 00:52:31;;;;;;;27.27;10.52;;;;;;;-3.37;100.00;98791.03;5056807;28;20051;-76
2023/01/16 00:54:57;;;;;;;18.77;11.23;;;;;;;-3.41;100.00;98787.03;5074389;28;20029;-76
2023/01/16 00:57:22;;;;;;;23.95;10.10;;;;;;;-3.44;100.00;98792.53;5039911;28;20135;-75
2023/01/16 00:59:48;;;;;;;32.50;11.15;;;;;;;-3.48;100.00;98786.72;5039895;28;20119;-75
2023/01/16 01:02:14;;;;;;;23.20;12.30;;;;;;;-3.53;100.00;98791.56;5039951;28;20493;-76
2023/01/16 01:04:40;;;;;;;18.15;8.30;;;;;;;-3.53;100.00;98795.00;5039775;28;20502;-76
2023/01/16 01:07:05;;;;;;;18.77;9.52;;;;;;;-3.76;100.00;98762.91;5056609;28;20041;-75
2023/01/16 01:09:31;;;;;;;16.48;9.07;;;;;;;-3.56;100.00;98795.28;5055864;28;20036;-75
2023/01/16 01:11:58;;;;;;;24.20;9.23;;;;;;;-3.35;100.00;98791.75;5039765;28;20035;-76
2023/01/16 01:14:24;;;;;;;22.98;9.00;;;;;;;-3.13;100.00;98799.38;5040157;28;20548;-76
2023/01/16 01:16:50;;;;;;;23.58;10.50;;;;;;;-3.04;100.00;98800.38;5039830;28;20029;-76
2023/01/16 01:19:15;;;;;;;27.20;11.48;;;;;;;-2.96;100.00;98803.13;5039804;28;20044;-76
2023/01/16 01:21:41;;;;;;;26.85;11.73;;;;;;;-3.02;100.00;98810.72;5072581;28;20032;-75
2023/01/16 01:24:06;;;;;;;22.90;9.75;;;;;;;-3.12;100.00;98816.00;5073764;28;20387;-75
2023/01/16 01:26:32;;;;;;;23.83;9.93;;;;;;;-3.28;100.00;98798.13;5056401;28;20394;-75
2023/01/16 01:29:00;;;;;;;25.30;9.18;;;;;;;-3.21;100.00;98809.72;5039346;28;20071;-75
2023/01/16 01:31:26;;;;;;;23.75;11.13;;;;;;;-3.22;100.00;98813.34;5055736;28;20028;-76
2023/01/16 01:33:51;;;;;;;30.05;10.70;;;;;;;-3.32;100.00;98817.75;5055765;28;20039;-75
2023/01/16 01:36:17;;;;;;;29.75;11.38;;;;;;;-3.41;100.00;98803.63;5039583;28;20052;-76
2023/01/16 01:38:44;;;;;;;27.25;11.05;;;;;;;-3.27;100.00;98822.59;5055614;28;20020;-75
2023/01/16 01:41:13;;;;;;;22.35;11.05;;;;;;;-3.25;100.00;98821.50;5056407;28;20123;-75
2023/01/16 01:43:50;;;;;;;27.15;9.50;;;;;;;-3.20;100.00;98808.78;5072386;28;20032;-75
2023/01/16 01:46:20;;;;;;;16.83;8.48;;;;;;;-2.99;100.00;98815.69;5055989;28;20101;-75
2023/01/16 01:48:48;;;;;;;16.63;8.38;;;;;;;-2.95;100.00;98815.31;5072669;28;20034;-76
2023/01/16 01:51:19;;;;;;;24.52;10.43;;;;;;;-2.94;100.00;98816.13;5039678;28;20075;-75
2023/01/16 01:53:50;;;;;;;20.83;10.27;;;;;;;-2.95;100.00;98817.09;5072105;28;20044;-75
2023/01/16 01:56:28;;;;;;;21.58;9.20;;;;;;;-3.14;100.00;98799.53;5072224;28;20029;-76
2023/01/16 01:58:57;;;;;;;21.98;9.25;;;;;;;-3.17;100.00;98821.66;5054480;28;20032;-75
2023/01/16 02:01:23;;;;;;;29.33;11.63;;;;;;;-3.21;100.00;98820.25;5072478;28;20032;-74
2023/01/16 02:03:57;;;;;;;22.13;10.70;;;;;;;-3.21;100.00;98822.06;5039491;28;20068;-75
2023/01/16 02:06:28;;;;;;;19.65;8.32;;;;;;;-3.26;100.00;98819.81;5071895;28;20037;-75
2023/01/16 02:08:53;;;;;;;23.92;10.20;;;;;;;-3.29;100.00;98825.34;5039066;28;20447;-75
2023/01/16 02:11:25;;;;;;;25.13;10.68;;;;;;;-3.38;100.00;98815.66;5039202;28;20032;-75
2023/01/16 02:13:57;;;;;;;26.42;10.20;;;;;;;-3.33;100.00;98832.69;5055296;28;20144;-75
2023/01/16 02:19:17;;;;;;;26.10;10.77;;;;;;;-3.60;100.00;98807.03;5072135;28;20024;-75
2023/01/16 02:21:58;;;;;;;21.20;9.38;;;;;;;-3.53;100.00;98834.41;5039008;28;20470;-75
2023/01/16 02:24:46;;;;;;;18.48;7.43;;;;;;;-3.40;100.00;98830.72;5072352;28;20037;-75
2023/01/16 02:27:23;;;;;;;19.92;10.35;;;;;;;-3.37;100.00;98833.09;5072068;28;20055;-75
2023/01/16 02:30:25;;;;;;;17.58;9.60;;;;;;;-3.52;100.00;98829.97;5055335;28;20538;-75
2023/01/16 02:33:28;;;;;;;37.70;10.50;;;;;;;-3.59;100.00;98826.25;5055390;28;20045;-75
2023/01/16 02:36:27;;;;;;;30.35;9.93;;;;;;;-3.66;100.00;98827.75;5063239;28;20036;-75
2023/01/16 02:39:05;;;;;;;15.98;8.00;;;;;;;-3.61;100.00;98821.13;5071609;28;20103;-75
2023/01/16 02:41:50;;;;;;;15.23;9.95;;;;;;;-3.45;100.00;98828.50;5072140;28;20119;-75
2023/01/16 02:44:40;;;;;;;23.50;9.48;;;;;;;-3.45;100.00;98835.56;5071762;28;20090;-75
2023/01/16 02:47:36;;;;;;;17.45;8.98;;;;;;;-3.44;100.00;98829.31;5055482;28;20040;-75
2023/01/16 02:50:13;;;;;;;26.35;10.98;;;;;;;-3.44;100.00;98826.69;5055389;28;20470;-75
2023/01/16 02:53:04;;;;;;;27.13;8.65;;;;;;;-3.43;100.00;98823.94;5055282;28;20090;-75
2023/01/16 02:55:39;;;;;;;14.73;7.75;;;;;;;-3.43;100.00;98831.81;5055280;28;20059;-75
2023/01/16 02:58:06;;;;;;;21.88;9.52;;;;;;;-3.33;100.00;98829.22;5054950;28;20064;-75
2023/01/16 03:00:34;;;;;;;20.23;8.85;;;;;;;-3.25;100.00;98833.81;5022252;28;20048;-76
2023/01/16 03:03:02;;;;;;;29.73;10.00;;;;;;;-3.21;100.00;98830.75;5055072;28;20025;-76
2023/01/16 03:05:34;;;;;;;24.90;9.52;;;;;;;-3.05;100.00;98830.22;5038801;28;20475;-75
2023/01/16 03:08:02;;;;;;;19.98;5.05;;;;;;;-3.05;100.00;98819.72;5071428;28;20033;-75
2023/01/16 03:10:50;;;;;;;17.10;8.43;;;;;;;-2.86;100.00;98834.66;5058042;28;20463;-75
2023/01/16 03:13:21;;;;;;;23.58;8.63;;;;;;;-2.62;100.00;98838.69;5075129;28;20074;-76
2023/01/16 03:16:05;;;;;;;24.83;6.90;;;;;;;-2.41;100.00;98836.75;5076609;28;20036;-75
2023/01/16 03:18:52;;;;;;;17.90;7.43;;;;;;;-2.38;100.00;98840.88;5058949;28;20032;-75
2023/01/16 03:21:41;;;;;;;17.08;7.85;;;;;;;-2.49;100.00;98841.88;5042168;28;20040;-75
2023/01/16 03:24:19;;;;;;;10.73;6.18;;;;;;;-2.47;100.00;98837.31;5058761;28;20036;-75
2023/01/16 03:26:49;;;;;;;14.27;7.78;;;;;;;-2.51;100.00;98836.78;5058340;28;20367;-75
2023/01/16 03:29:27;;;;;;;19.52;8.40;;;;;;;-2.56;100.00;98849.50;5058656;28;20469;-75
2023/01/16 03:32:07;;;;;;;25.05;6.63;;;;;;;-2.52;100.00;98850.06;5058646;28;20045;-75
2023/01/16 03:34:49;;;;;;;19.10;7.35;;;;;;;-2.46;100.00;98850.34;5058576;28;20044;-75
2023/01/16 03:37:19;;;;;;;19.35;7.10;;;;;;;-2.39;100.00;98852.41;5041817;28;20028;-75
2023/01/16 03:39:50;;;;;;;20.83;8.35;;;;;;;-2.40;100.00;98843.69;5058347;28;20470;-75
2023/01/16 03:42:29;;;;;;;24.23;12.00;;;;;;;-2.13;100.00;98858.75;5074721;28;20024;-76
2023/01/16 03:45:05;;;;;;;31.25;11.68;;;;;;;-1.99;100.00;98862.72;5074746;28;20024;-76
2023/01/16 03:47:36;;;;;;;28.15;10.60;;;;;;;-1.90;100.00;98851.34;5058516;28;20025;-75
2023/01/16 03:50:07;;;;;;;24.52;9.50;;;;;;;-1.77;100.00;98848.41;5057873;28;20040;-75
2023/01/16 03:52:38;;;;;;;44.05;10.10;;;;;;;-1.63;100.00;98855.00;5041850;28;20033;-75
2023/01/16 03:55:15;;;;;;;20.08;8.32;;;;;;;-1.49;100.00;98856.31;5041612;28;20055;-76
2023/01/16 03:57:47;;;;;;;21.90;8.52;;;;;;;-1.36;100.00;98856.81;5075331;28;20036;-75
2023/01/16 04:00:13;;;;;;;61.45;13.38;;;;;;;-1.29;100.00;98852.63;5074220;28;20054;-75
2023/01/16 04:02:41;;;;;;;20.60;8.65;;;;;;;-1.13;100.00;98859.88;5041285;28;20060;-75
2023/01/16 04:05:13;;;;;;;25.52;9.65;;;;;;;-1.01;100.00;98855.22;5074622;28;20032;-76
2023/01/16 04:07:45;;;;;;;24.52;8.23;;;;;;;-0.94;100.00;98862.41;5057966;28;20036;-76
2023/01/16 04:10:15;;;;;;;24.13;8.82;;;;;;;-0.96;100.00;98852.97;5075306;28;20078;-76
2023/01/16 04:12:54;;;;;;;25.60;7.00;;;;;;;-0.85;100.00;98854.56;5057102;28;20497;-76
2023/01/16 04:15:19;;;;;;;24.15;7.80;;;;;;;-0.76;100.00;98858.97;5057388;28;20067;-76
2023/01/16 04:17:45;;;;;;;19.02;8.00;;;;;;;-0.74;100.00;98862.25;5057449;28;20059;-76
2023/01/16 04:20:11;;;;;;;20.90;8.23;;;;;;;-0.67;100.00;98858.88;5041178;28;20045;-76
2023/01/16 04:22:37;;;;;;;17.48;7.35;;;;;;;-0.70;100.00;98842.50;5073230;28;20077;-75
2023/01/16 04:25:06;;;;;;;21.70;7.75;;;;;;;-0.59;100.00;98858.13;5057079;28;20021;-75
2023/01/16 04:27:32;;;;;;;15.23;6.95;;;;;;;-0.56;100.00;98860.44;5040977;28;20505;-75
2023/01/16 04:29:58;;;;;;;20.92;6.93;;;;;;;-0.51;100.00;98867.91;5074042;28;20032;-75
2023/01/16 04:32:23;;;;;;;14.70;6.00;;;;;;;-0.51;100.00;98871.38;5057313;28;20044;-75
2023/01/16 04:34:49;;;;;;;17.88;7.40;;;;;;;-0.41;100.00;98881.88;5040856;28;20035;-75
2023/01/16 04:37:16;;;;;;;10.23;4.45;;;;;;;-0.35;100.00;98880.44;5040657;28;20040;-75
2023/01/16 04:39:42;;;;;;;14.00;5.20;;;;;;;-0.34;100.00;98882.13;5040617;28;20033;-76
2023/01/16 04:42:08;;;;;;;13.73;5.70;;;;;;;-0.30;100.00;98876.34;5040201;28;20394;-75
2023/01/16 04:44:34;;;;;;;7.22;3.63;;;;;;;-0.30;100.00;98872.88;5023813;28;20474;-75
2023/01/16 04:47:00;;;;;;;9.95;4.05;;;;;;;-0.33;100.00;98865.28;5073727;28;20111;-75
2023/01/16 04:49:26;;;;;;;11.52;4.18;;;;;;;-0.26;100.00;98871.63;5056584;28;20103;-75
2023/01/16 04:51:51;;;;;;;7.95;4.20;;;;;;;-0.25;100.00;98879.38;5040355;28;20124;-75
2023/01/16 04:54:18;;;;;;;7.60;3.13;;;;;;;-0.23;100.00;98892.44;5040131;28;20470;-74
2023/01/16 04:56:44;;;;;;;7.38;2.78;;;;;;;-0.29;100.00;98879.81;5040353;28;20028;-76
2023/01/16 04:59:10;;;;;;;6.45;2.90;;;;;;;-0.14;100.00;98893.31;5056464;28;20037;-75
2023/01/16 05:01:37;;;;;;;7.93;2.17;;;;;;;-0.12;100.00;98886.91;5056631;28;20024;-74
2023/01/16 05:04:09;;;;;;;3.47;2.05;;;;;;;-0.07;100.00;98884.63;5056808;28;20081;-75
2023/01/16 05:06:35;;;;;;;3.22;2.38;;;;;;;-0.23;100.00;98868.66;5040016;28;20030;-75
2023/01/16 05:09:02;;;;;;;1.08;0.98;;;;;;;-0.14;100.00;98880.94;5056843;28;20479;-75
2023/01/16 05:11:28;;;;;;;4.97;3.55;;;;;;;-0.01;100.00;98910.44;5023759;28;20055;-74
2023/01/16 05:13:53;;;;;;;0.40;0.40;;;;;;;-0.04;100.00;98908.09;5056432;28;20036;-74
2023/01/16 05:16:19;;;;;;;6.75;2.80;;;;;;;-0.11;100.00;98906.22;5056310;28;20436;-74
2023/01/16 05:18:48;;;;;;;2.25;2.15;;;;;;;-0.19;100.00;98904.34;5040733;28;20047;-74
2023/01/16 05:21:14;;;;;;;0.40;0.40;;;;;;;-0.16;100.00;98913.78;5072456;28;20395;-73
2023/01/16 05:23:39;;;;;;;0.40;0.40;;;;;;;-0.23;100.00;98913.56;5056522;28;20102;-74
2023/01/16 05:26:05;;;;;;;0.75;0.75;;;;;;;-0.31;100.00;98902.94;5056013;28;20111;-74
2023/01/16 05:28:32;;;;;;;3.58;3.33;;;;;;;-0.43;100.00;98915.50;5072942;28;20116;-73
2023/01/16 05:30:58;;;;;;;0.50;0.50;;;;;;;-0.58;100.00;98914.38;5073121;28;20040;-73
2023/01/16 05:33:24;;;;;;;2.15;2.05;;;;;;;-0.70;100.00;98914.59;5072427;28;20027;-75
2023/01/16 05:35:53;;;;;;;0.60;0.60;;;;;;;-0.88;100.00;98911.91;5074041;28;20127;-74
2023/01/16 05:38:19;;;;;;;0.50;0.50;;;;;;;-1.15;100.00;98917.22;5072737;28;20462;-74
2023/01/16 05:40:46;;;;;;;1.02;1.02;;;;;;;-1.19;100.00;98929.88;5055744;28;20074;-74
2023/01/16 05:43:12;;;;;;;0.50;0.50;;;;;;;-1.28;100.00;98928.09;5072314;28;20070;-74
2023/01/16 05:45:38;;;;;;;0.50;0.50;;;;;;;-1.51;100.00;98906.53;5039593;28;20028;-74
2023/01/16 05:48:04;;;;;;;0.50;0.50;;;;;;;-1.46;100.00;98924.56;5072149;28;20094;-73
2023/01/16 05:50:30;;;;;;;0.50;0.50;;;;;;;-1.60;100.00;98921.41;5055956;28;20032;-74
2023/01/16 05:52:56;;;;;;;0.50;0.50;;;;;;;-1.65;100.00;98928.91;5023034;28;20394;-74
2023/01/16 05:55:21;;;;;;;0.50;0.50;;;;;;;-1.62;100.00;98933.06;5072279;28;20029;-76
2023/01/16 05:57:47;;;;;;;0.93;0.88;;;;;;;-1.70;100.00;98933.78;5055847;28;20032;-74
2023/01/16 06:00:13;;;;;;;0.40;0.40;;;;;;;-1.80;100.00;98931.19;5039436;28;20367;-75
2023/01/16 06:02:39;;;;;;;0.50;0.50;;;;;;;-1.91;100.00;98926.06;5055965;28;20037;-74
2023/01/16 06:05:05;;;;;;;0.40;0.40;;;;;;;-2.17;100.00;98906.53;5039063;28;20420;-74
2023/01/16 06:07:31;;;;;;;0.50;0.50;;;;;;;-2.12;100.00;98923.59;5055491;28;20048;-76
2023/01/16 06:09:56;;;;;;;1.08;0.93;;;;;;;-2.11;100.00;98929.72;5039136;28;20386;-75
2023/01/16 06:12:22;;;;;;;0.50;0.50;;;;;;;-2.11;100.00;98935.78;5071929;28;20033;-76
2023/01/16 06:14:48;;;;;;;0.40;0.40;;;;;;;-2.19;100.00;98933.03;5055869;28;20471;-75
2023/01/16 06:17:14;;;;;;;0.50;0.50;;;;;;;-2.27;100.00;98935.53;5038928;28;20462;-77
2023/01/16 06:19:43;;;;;;;0.60;0.60;;;;;;;-2.40;100.00;98937.59;5072172;28;20174;-76
2023/01/16 06:22:09;;;;;;;0.50;0.50;;;;;;;-2.57;100.00;98936.47;5072139;28;20033;-75
2023/01/16 06:24:35;;;;;;;0.50;0.50;;;;;;;-2.76;100.00;98937.28;5055677;28;20549;-76
2023/01/16 06:27:01;;;;;;;0.82;0.82;;;;;;;-2.91;100.00;98931.56;5055608;28;20083;-76
2023/01/16 06:29:26;;;;;;;0.50;0.50;;;;;;;-3.00;100.00;98938.47;5038894;28;20060;-76
2023/01/16 06:31:52;;;;;;;4.10;2.78;;;;;;;-3.06;100.00;98932.91;5038822;28;20068;-75
2023/01/16 06:34:18;;;;;;;0.50;0.50;;;;;;;-3.00;100.00;98950.78;5039130;28;20129;-74
2023/01/16 06:36:45;;;;;;;0.45;0.45;;;;;;;-3.02;100.00;98966.69;5055446;28;20457;-74
2023/01/16 06:39:11;;;;;;;0.40;0.40;;;;;;;-3.19;100.00;98959.44;5055540;28;20055;-75
2023/01/16 06:41:37;;;;;;;0.50;0.50;;;;;;;-3.16;100.00;98964.44;5054944;28;20116;-76
2023/01/16 06:44:03;;;;;;;0.95;0.95;;;;;;;-3.20;100.00;98963.88;5039038;28;20036;-76
2023/01/16 06:46:29;;;;;;;2.05;1.95;;;;;;;-3.32;100.00;98962.28;5059376;28;20033;-76
2023/01/16 06:48:54;;;;;;;0.85;0.85;;;;;;;-3.31;100.00;98953.44;5058957;28;20056;-76
2023/01/16 06:51:20;;;;;;;0.50;0.50;;;;;;;-3.29;100.00;98963.81;5042848;28;20028;-76
2023/01/16 06:53:46;;;;;;;0.70;0.70;;;;;;;-3.39;100.00;98961.97;5059257;28;20033;-76
2023/01/16 06:56:11;;;;;;;0.50;0.50;;;;;;;-3.36;100.00;98959.09;5058847;28;20033;-76
2023/01/16 06:58:37;;;;;;;0.50;0.50;;;;;;;-3.33;100.00;98961.47;5059052;28;20382;-75
2023/01/16 07:01:03;;;;;;;0.73;0.73;;;;;;;-3.33;100.00;98963.25;5059095;28;20390;-76
2023/01/16 07:03:29;;;;;;;0.50;0.50;;;;;;;-3.38;100.00;98949.69;5042516;28;20036;-76
2023/01/16 07:05:54;;;;;;;0.50;0.50;;;;;;;-3.35;100.00;98955.50;5042571;28;20512;-76
2023/01/16 07:08:20;;;;;;;0.40;0.40;;;;;;;-3.37;100.00;98954.78;5058398;28;20050;-76
2023/01/16 07:10:45;;;;;;;0.50;0.50;;;;;;;-3.37;100.00;98956.59;5058727;28;20039;-75
2023/01/16 07:13:11;;;;;;;0.50;0.50;;;;;;;-3.44;100.00;98953.66;5042232;28;20510;-75
2023/01/16 07:24:05;;;;;;;0.93;0.93;;;;;;;-3.78;100.00;98958.31;5047229;28;20043;-74
2023/01/16 07:26:31;;;;;;;0.93;0.93;;;;;;;-3.84;100.00;98958.81;5058855;28;20105;-74
2023/01/16 07:28:57;;;;;;;0.88;0.88;;;;;;;-4.03;100.00;98949.03;5025592;28;20044;-75
2023/01/16 07:31:23;;;;;;;2.15;2.05;;;;;;;-4.23;100.00;98945.44;5041474;28;20029;-74
2023/01/16 07:33:49;;;;;;;0.50;0.50;;;;;;;-4.24;100.00;98956.88;5041688;28;20028;-75
2023/01/16 07:36:15;;;;;;;0.57;0.57;;;;;;;-4.29;100.00;98962.50;5041401;28;20039;-77
2023/01/16 07:38:40;;;;;;;0.60;0.60;;;;;;;-4.23;100.00;98958.56;5057834;28;20028;-75
2023/01/16 07:41:06;;;;;;;0.50;0.50;;;;;;;-4.18;100.00;98960.78;5041617;28;20070;-77
2023/01/16 07:43:32;;;;;;;2.95;2.75;;;;;;;-4.42;100.00;98954.81;5041004;28;20032;-77
2023/01/16 07:45:57;;;;;;;0.50;0.50;;;;;;;-4.56;100.00;98957.72;5041238;28;20070;-77
2023/01/16 07:48:23;;;;;;;0.65;0.65;;;;;;;-4.64;100.00;98970.59;5057486;28;20497;-76
2023/01/16 07:50:53;;;;;;;0.50;0.50;;;;;;;-4.63;100.00;98967.03;5041334;28;20111;-76
2023/01/16 07:53:22;;;;;;;0.50;0.50;;;;;;;-4.69;100.00;98957.03;5074160;28;20466;-76
2023/01/16 07:55:55;;;;;;;1.13;1.13;;;;;;;-4.72;100.00;98965.16;5072148;28;20031;-76
2023/01/16 07:58:21;;;;;;;0.75;0.75;;;;;;;-4.80;100.00;98959.69;5073968;28;20040;-77
2023/01/16 08:00:48;;;;;;;0.50;0.50;;;;;;;-4.80;100.00;98970.16;5040900;28;20089;-76
2023/01/16 08:03:14;;;;;;;0.55;0.55;;;;;;;-4.69;100.00;98968.34;5073801;28;20136;-75
2023/01/16 08:05:42;;;;;;;0.50;0.50;;;;;;;-4.67;100.00;98971.69;5056754;28;20158;-74
2023/01/16 08:08:09;;;;;;;0.70;0.70;;;;;;;-4.59;100.00;98972.88;5057095;28;20048;-75
2023/01/16 08:10:36;;;;;;;0.50;0.50;;;;;;;-4.75;100.00;98936.56;5057276;28;20033;-75
2023/01/16 08:13:01;;;;;;;0.80;0.80;;;;;;;-4.69;100.00;98951.78;5073511;28;20025;-75
2023/01/16 08:15:27;;;;;;;1.42;1.38;;;;;;;-4.60;100.00;98971.19;5040062;28;20025;-76
2023/01/16 08:17:53;;;;;;;2.05;1.95;;;;;;;-4.62;100.00;98965.25;5073265;28;20058;-76
2023/01/16 08:20:19;;;;;;;1.58;1.58;;;;;;;-4.99;100.00;98921.81;5039875;28;20166;-76
2023/01/16 08:22:46;;;;;;;0.50;0.50;;;;;;;-4.83;100.00;98970.41;5056742;28;20477;-76
2023/01/16 08:25:13;;;;;;;0.50;0.50;;;;;;;-4.83;100.00;98966.00;5057023;28;20174;-76
2023/01/16 08:27:39;;;;;;;0.52;0.52;;;;;;;-4.78;100.00;98963.03;5039772;28;20032;-77
2023/01/16 08:30:06;;;;;;;0.50;0.50;;;;;;;-4.66;100.00;98970.75;5073176;28;20028;-76
2023/01/16 08:32:31;;;;;;;0.80;0.80;;;;;;;-4.71;100.00;98966.78;5072572;28;20478;-76
2023/01/16 08:34:57;;;;;;;2.50;2.30;;;;;;;-4.71;100.00;98977.28;5039687;28;20028;-76
2023/01/16 08:37:23;;;;;;;0.75;0.75;;;;;;;-4.66;100.00;98977.75;5039991;28;20033;-76
2023/01/16 08:39:48;;;;;;;0.50;0.50;;;;;;;-4.70;100.00;98982.41;5039627;28;20478;-76
2023/01/16 08:53:11;;;;;;;0.60;0.60;;;;;;;-4.66;100.00;98993.50;5074346;28;20462;-76
2023/01/16 08:55:38;;;;;;;0.60;0.60;;;;;;;-4.73;100.00;98993.16;5040139;28;20086;-75
2023/01/16 08:58:05;;;;;;;0.50;0.50;;;;;;;-4.84;100.00;98987.94;5073155;28;20020;-75
2023/01/16 09:00:31;;;;;;;1.17;1.15;;;;;;;-4.87;100.00;98996.03;5073083;28;20026;-75
2023/01/16 09:03:01;;;;;;;0.90;0.90;;;;;;;-4.91;100.00;98994.63;5073351;28;20056;-75
2023/01/16 09:05:27;;;;;;;2.60;2.05;;;;;;;-5.07;100.00;98983.69;5040531;28;20142;-75
2023/01/16 09:07:53;;;;;;;0.55;0.55;;;;;;;-5.00;100.00;99006.66;5039095;28;20035;-76
2023/01/16 09:10:19;;;;;;;2.33;2.15;;;;;;;-4.95;100.00;99004.53;5055854;28;20025;-75
2023/01/16 09:15:29;;;;;;;1.33;1.33;;;;;;;-4.78;100.00;98991.88;5073213;28;20028;-75
2023/01/16 09:17:55;;;;;;;0.80;0.80;;;;;;;-4.53;100.00;99011.69;5072509;28;20070;-75
2023/01/16 09:20:21;;;;;;;1.45;1.45;;;;;;;-4.50;100.00;99014.94;5039963;28;20030;-75
2023/01/16 09:22:46;;;;;;;0.40;0.40;;;;;;;-4.42;100.00;99014.28;5072474;28;20055;-74
2023/01/16 09:25:12;;;;;;;3.00;2.78;;;;;;;-4.26;100.00;99016.50;5039739;28;20071;-75
2023/01/16 09:27:40;;;;;;;0.60;0.60;;;;;;;-4.16;100.00;99014.81;5039865;28;20378;-74
2023/01/16 09:30:06;;;;;;;0.65;0.65;;;;;;;-4.12;100.00;99008.38;5055669;28;20036;-75
2023/01/16 09:32:33;;;;;;;0.50;0.50;;;;;;;-4.03;100.00;99006.78;5055926;28;20028;-74
2023/01/16 09:34:59;;;;;;;2.35;2.25;;;;;;;-3.71;100.00;99001.47;5039676;28;20059;-74
2023/01/16 09:37:25;;;;;;;0.60;0.60;;;;;;;-2.61;100.00;99001.69;5039748;28;20056;-76
2023/01/16 09:39:50;;;;;;;0.50;0.50;;;;;;;-1.85;100.00;99001.91;5039209;28;20466;-75
2023/01/16 09:45:22;;;;;;;0.60;0.60;;;;;;;-1.38;100.00;98990.56;5058460;28;20033;-77
2023/01/16 09:47:52;;;;;;;0.50;0.50;;;;;;;-1.32;100.00;99005.84;5035993;28;20044;-79
2023/01/16 09:50:34;;;;;;;0.50;0.50;;;;;;;-1.32;100.00;99005.84;5022872;28;20036;-80
2023/01/16 09:58:39;;;;;;;0.75;0.75;;;;;;;-0.41;100.00;99005.16;5058375;28;20052;-78
2023/01/16 10:01:13;;;;;;;0.60;0.60;;;;;;;-0.40;100.00;99007.63;5071999;28;20068;-78
2023/01/16 10:03:42;;;;;;;0.60;0.60;;;;;;;-0.36;100.00;98981.78;5055919;28;20080;-79
2023/01/16 10:06:29;;;;;;;0.50;0.50;;;;;;;0.19;100.00;99010.69;5056231;28;20048;-78
2023/01/16 10:09:02;;;;;;;0.60;0.60;;;;;;;0.59;100.00;99004.06;5055727;28;20035;-79
2023/01/16 10:11:36;;;;;;;0.50;0.50;;;;;;;0.62;100.00;98993.97;5056355;28;20036;-78
2023/01/16 10:14:19;;;;;;;0.57;0.57;;;;;;;0.77;100.00;98991.59;5055730;28;20032;-79
2023/01/16 10:16:56;;;;;;;0.70;0.70;;;;;;;1.74;100.00;98995.63;5073176;28;20482;-78
2023/01/16 10:19:39;;;;;;;0.70;0.70;;;;;;;3.37;99.62;99001.75;5054997;28;20032;-78
2023/01/16 10:22:08;;;;;;;0.80;0.80;;;;;;;4.53;93.81;98997.34;5055480;28;20036;-78
2023/01/16 10:24:36;;;;;;;0.70;0.70;;;;;;;4.78;91.74;98968.66;5072291;28;20028;-80
2023/01/16 10:27:18;;;;;;;0.80;0.80;;;;;;;5.81;86.97;98994.38;5055892;28;20025;-79
2023/01/16 10:29:49;;;;;;;0.70;0.70;;;;;;;6.51;82.93;98968.81;5072149;28;20031;-78
2023/01/16 10:32:34;;;;;;;0.60;0.60;;;;;;;7.29;80.24;98986.56;5055523;28;20032;-78
2023/01/16 10:35:17;;;;;;;0.80;0.80;;;;;;;8.02;76.01;98986.81;5073176;28;20033;-78
2023/01/16 10:37:44;;;;;;;0.70;0.70;;;;;;;8.14;75.67;98980.66;5023051;28;20040;-78
2023/01/16 10:40:19;;;;;;;0.70;0.70;;;;;;;8.68;74.93;98986.94;5073182;28;20123;-77
2023/01/16 10:51:03;;;;;;;0.50;0.50;;;;;;;8.60;81.81;98971.06;5057845;28;20040;-77
2023/01/16 10:53:30;;;;;;;0.60;0.60;;;;;;;8.34;83.89;98975.34;5022418;28;20051;-77
2023/01/16 10:55:56;;;;;;;0.65;0.65;;;;;;;8.59;85.28;98964.84;5055291;28;20127;-77
2023/01/16 10:58:28;;;;;;;0.60;0.60;;;;;;;8.14;87.12;98971.81;5055173;28;20111;-77
2023/01/16 11:01:02;;;;;;;0.52;0.52;;;;;;;7.39;91.42;98966.47;5054928;28;20032;-76
2023/01/16 11:03:38;;;;;;;0.60;0.60;;;;;;;8.03;89.89;98951.00;5054690;28;20086;-77
2023/01/16 11:06:11;;;;;;;0.50;0.50;;;;;;;8.41;85.82;98939.72;5055115;28;20071;-77
2023/01/16 11:08:36;;;;;;;0.70;0.70;;;;;;;8.66;86.38;98935.41;5055092;28;20052;-77
2023/01/16 11:11:03;;;;;;;0.60;0.60;;;;;;;9.50;86.07;98938.25;5071394;28;20036;-78
2023/01/16 11:18:58;;;;;;;0.60;0.60;;;;;;;9.22;85.28;98945.56;5072929;28;20028;-77
2023/01/16 11:21:30;;;;;;;0.60;0.60;;;;;;;8.75;87.21;98934.13;5054852;28;20035;-77
2023/01/16 11:24:18;;;;;;;0.60;0.60;;;;;;;7.59;91.11;98939.78;5038393;28;20040;-77
2023/01/16 11:26:50;;;;;;;0.50;0.50;;;;;;;7.06;93.63;98928.88;5071550;28;20082;-77
2023/01/16 11:29:17;;;;;;;1.63;1.52;;;;;;;6.45;99.49;98905.47;5038173;28;20037;-77
2023/01/16 11:31:48;;;;;;;0.98;0.98;;;;;;;5.92;100.00;98921.03;5057772;28;20038;-77
2023/01/16 11:34:14;;;;;;;0.50;0.50;;;;;;;5.50;100.00;98918.16;5042089;28;20139;-77
2023/01/16 11:36:40;;;;;;;0.50;0.50;;;;;;;5.06;100.00;98902.25;5058384;28;20032;-77
2023/01/16 11:39:07;;;;;;;6.40;3.13;;;;;;;4.76;100.00;98896.09;5058300;28;20028;-77
2023/01/16 11:41:36;;;;;;;0.50;0.50;;;;;;;4.74;100.00;98912.28;5074633;28;20036;-76
2023/01/16 11:47:23;;;;;;;0.50;0.50;;;;;;;5.28;100.00;98905.78;5075106;28;20021;-76
2023/01/16 11:49:50;;;;;;;0.60;0.60;;;;;;;5.49;100.00;98897.84;5074926;28;20021;-77
2023/01/16 11:52:28;;;;;;;0.50;0.50;;;;;;;4.93;100.00;98899.44;5058197;28;20036;-77
2023/01/16 11:55:00;;;;;;;0.50;0.50;;;;;;;4.10;100.00;98893.28;5059596;28;20063;-77
2023/01/16 11:57:39;;;;;;;0.50;0.50;;;;;;;3.45;100.00;98894.63;5058106;28;20032;-76
2023/01/16 12:00:19;;;;;;;0.40;0.40;;;;;;;3.22;100.00;98891.94;5041618;28;20371;-76
2023/01/16 12:03:26;;;;;;;0.50;0.50;;;;;;;3.17;100.00;98883.66;5075347;28;20020;-76
2023/01/16 12:06:01;;;;;;;0.55;0.55;;;;;;;3.43;100.00;98884.16;5074363;28;20112;-76
2023/01/16 12:08:39;;;;;;;0.60;0.60;;;;;;;4.69;100.00;98871.25;5041408;28;20119;-76
2023/01/16 12:11:13;;;;;;;0.50;0.50;;;;;;;4.66;100.00;98869.78;5075699;28;20032;-74
2023/01/16 12:17:13;;;;;;;0.50;0.50;;;;;;;5.43;100.00;98865.78;5074608;28;20471;-74
2023/01/16 12:19:48;;;;;;;0.50;0.50;;;;;;;4.41;100.00;98864.72;5074365;28;20024;-74
2023/01/16 12:22:20;;;;;;;0.50;0.50;;;;;;;4.53;100.00;98864.28;5057593;28;20028;-74
2023/01/16 12:25:48;;;;;;;0.60;0.60;;;;;;;5.56;100.00;98852.59;5041204;28;20118;-73
2023/01/16 12:28:32;;;;;;;0.60;0.60;;;;;;;6.15;100.00;98854.16;5028417;28;20040;-74